sensor_id;sensor_type;location;lat;lon;timestamp;P1;durP1;ratioP1;P2;durP2;ratioP2
73678;SDS011;61978;52.742;16.962;2023-08-07T00:01:25;0.80;;;0.70;;
73678;SDS011;61978;52.742;16.962;2023-08-07T00:03:50;2.00;;;0.70;;
73678;SDS011;61978;52.742;16.962;2023-08-07T00:06:18;0.80;;;0.60;;
73678;SDS011;61978;52.742;16.962;2023-08-07T00:08:44;1.10;;;0.90;;
73678;SDS011;61978;52.742;16.962;2023-08-07T00:11:10;0.80;;;0.80;;
73678;SDS011;61978;52.742;16.962;2023-08-07T00:13:36;1.00;;;0.80;;
73678;SDS011;61978;52.742;16.962;2023-08-07T00:16:02;1.00;;;0.70;;
73678;SDS011;61978;52.742;16.962;2023-08-07T00:18:28;0.80;;;0.80;;
73678;SDS011;61978;52.742;16.962;2023-08-07T00:20:54;4.90;;;1.10;;
73678;SDS011;61978;52.742;16.962;2023-08-07T00:23:20;2.50;;;0.80;;
73678;SDS011;61978;52.742;16.962;2023-08-07T00:25:46;2.10;;;0.90;;
73678;SDS011;61978;52.742;16.962;2023-08-07T00:28:12;3.40;;;1.10;;
73678;SDS011;61978;52.742;16.962;2023-08-07T00:30:38;3.10;;;1.20;;
73678;SDS011;61978;52.742;16.962;2023-08-07T00:33:04;2.00;;;1.20;;
73678;SDS011;61978;52.742;16.962;2023-08-07T00:35:30;4.20;;;1.20;;
73678;SDS011;61978;52.742;16.962;2023-08-07T00:37:55;5.20;;;1.20;;
73678;SDS011;61978;52.742;16.962;2023-08-07T00:40:21;2.30;;;1.40;;
73678;SDS011;61978;52.742;16.962;2023-08-07T00:42:49;1.00;;;1.00;;
73678;SDS011;61978;52.742;16.962;2023-08-07T00:45:15;2.70;;;1.00;;
73678;SDS011;61978;52.742;16.962;2023-08-07T00:47:43;1.80;;;1.10;;
73678;SDS011;61978;52.742;16.962;2023-08-07T00:50:09;4.10;;;1.10;;
73678;SDS011;61978;52.742;16.962;2023-08-07T00:52:35;3.80;;;1.20;;
73678;SDS011;61978;52.742;16.962;2023-08-07T00:55:01;3.50;;;1.30;;
73678;SDS011;61978;52.742;16.962;2023-08-07T00:57:29;1.40;;;1.30;;
73678;SDS011;61978;52.742;16.962;2023-08-07T00:59:54;6.30;;;1.60;;
73678;SDS011;61978;52.742;16.962;2023-08-07T01:02:20;5.50;;;1.40;;
73678;SDS011;61978;52.742;16.962;2023-08-07T01:04:46;4.30;;;1.40;;
73678;SDS011;61978;52.742;16.962;2023-08-07T01:07:12;5.80;;;1.30;;
73678;SDS011;61978;52.742;16.962;2023-08-07T01:09:38;2.10;;;1.40;;
73678;SDS011;61978;52.742;16.962;2023-08-07T01:14:37;5.40;;;1.10;;
73678;SDS011;61978;52.742;16.962;2023-08-07T01:17:07;4.10;;;1.50;;
73678;SDS011;61978;52.742;16.962;2023-08-07T01:19:34;2.50;;;1.40;;
73678;SDS011;61978;52.742;16.962;2023-08-07T01:22:05;1.50;;;1.20;;
73678;SDS011;61978;52.742;16.962;2023-08-07T01:24:35;2.80;;;1.30;;
73678;SDS011;61978;52.742;16.962;2023-08-07T01:27:11;3.20;;;1.30;;
73678;SDS011;61978;52.742;16.962;2023-08-07T01:29:51;1.30;;;1.10;;
73678;SDS011;61978;52.742;16.962;2023-08-07T01:32:25;3.10;;;1.30;;
73678;SDS011;61978;52.742;16.962;2023-08-07T01:34:51;2.70;;;1.10;;
73678;SDS011;61978;52.742;16.962;2023-08-07T01:37:20;2.80;;;0.70;;
73678;SDS011;61978;52.742;16.962;2023-08-07T01:39:46;3.90;;;1.40;;
73678;SDS011;61978;52.742;16.962;2023-08-07T01:42:13;1.70;;;1.40;;
73678;SDS011;61978;52.742;16.962;2023-08-07T01:44:41;2.90;;;1.20;;
73678;SDS011;61978;52.742;16.962;2023-08-07T01:47:07;2.60;;;1.30;;
73678;SDS011;61978;52.742;16.962;2023-08-07T01:49:33;8.30;;;1.50;;
73678;SDS011;61978;52.742;16.962;2023-08-07T01:51:59;2.60;;;1.20;;
73678;SDS011;61978;52.742;16.962;2023-08-07T01:54:27;1.70;;;0.90;;
73678;SDS011;61978;52.742;16.962;2023-08-07T01:56:53;3.70;;;1.40;;
73678;SDS011;61978;52.742;16.962;2023-08-07T01:59:19;1.60;;;1.20;;
73678;SDS011;61978;52.742;16.962;2023-08-07T02:01:45;1.60;;;1.50;;
73678;SDS011;61978;52.742;16.962;2023-08-07T02:04:10;2.20;;;1.50;;
73678;SDS011;61978;52.742;16.962;2023-08-07T02:06:36;1.60;;;1.20;;
73678;SDS011;61978;52.742;16.962;2023-08-07T02:09:02;1.30;;;1.20;;
73678;SDS011;61978;52.742;16.962;2023-08-07T02:11:28;4.70;;;1.30;;
73678;SDS011;61978;52.742;16.962;2023-08-07T02:13:54;2.70;;;1.40;;
73678;SDS011;61978;52.742;16.962;2023-08-07T02:16:20;3.50;;;1.00;;
73678;SDS011;61978;52.742;16.962;2023-08-07T02:18:47;2.40;;;1.50;;
73678;SDS011;61978;52.742;16.962;2023-08-07T02:21:13;2.70;;;0.90;;
73678;SDS011;61978;52.742;16.962;2023-08-07T02:23:39;3.30;;;0.90;;
73678;SDS011;61978;52.742;16.962;2023-08-07T02:26:04;5.90;;;1.50;;
73678;SDS011;61978;52.742;16.962;2023-08-07T02:28:30;2.70;;;1.30;;
73678;SDS011;61978;52.742;16.962;2023-08-07T02:30:56;1.10;;;1.10;;
73678;SDS011;61978;52.742;16.962;2023-08-07T02:33:22;1.60;;;1.10;;
73678;SDS011;61978;52.742;16.962;2023-08-07T02:35:49;5.00;;;1.60;;
73678;SDS011;61978;52.742;16.962;2023-08-07T02:38:16;3.30;;;1.30;;
73678;SDS011;61978;52.742;16.962;2023-08-07T02:40:43;3.50;;;1.40;;
73678;SDS011;61978;52.742;16.962;2023-08-07T02:43:08;1.70;;;1.00;;
73678;SDS011;61978;52.742;16.962;2023-08-07T02:45:36;2.30;;;1.10;;
73678;SDS011;61978;52.742;16.962;2023-08-07T02:48:03;2.10;;;1.10;;
73678;SDS011;61978;52.742;16.962;2023-08-07T02:50:29;3.30;;;0.90;;
73678;SDS011;61978;52.742;16.962;2023-08-07T02:52:58;5.90;;;1.30;;
73678;SDS011;61978;52.742;16.962;2023-08-07T02:55:24;2.80;;;1.80;;
73678;SDS011;61978;52.742;16.962;2023-08-07T02:57:50;1.80;;;1.20;;
73678;SDS011;61978;52.742;16.962;2023-08-07T03:00:16;2.30;;;1.80;;
73678;SDS011;61978;52.742;16.962;2023-08-07T03:02:42;3.10;;;1.30;;
73678;SDS011;61978;52.742;16.962;2023-08-07T03:05:08;2.10;;;1.20;;
73678;SDS011;61978;52.742;16.962;2023-08-07T03:07:34;3.10;;;1.40;;
73678;SDS011;61978;52.742;16.962;2023-08-07T03:09:59;4.40;;;1.50;;
73678;SDS011;61978;52.742;16.962;2023-08-07T03:12:26;2.10;;;1.50;;
73678;SDS011;61978;52.742;16.962;2023-08-07T03:14:52;3.10;;;1.90;;
73678;SDS011;61978;52.742;16.962;2023-08-07T03:17:18;3.30;;;2.20;;
73678;SDS011;61978;52.742;16.962;2023-08-07T03:19:43;3.50;;;2.30;;
73678;SDS011;61978;52.742;16.962;2023-08-07T03:22:11;4.10;;;2.40;;
73678;SDS011;61978;52.742;16.962;2023-08-07T03:24:36;6.00;;;2.80;;
73678;SDS011;61978;52.742;16.962;2023-08-07T03:27:02;4.90;;;2.30;;
73678;SDS011;61978;52.742;16.962;2023-08-07T03:29:28;2.80;;;2.00;;
73678;SDS011;61978;52.742;16.962;2023-08-07T03:31:54;5.40;;;2.10;;
73678;SDS011;61978;52.742;16.962;2023-08-07T03:34:19;4.80;;;2.00;;
73678;SDS011;61978;52.742;16.962;2023-08-07T03:36:45;2.60;;;2.00;;
73678;SDS011;61978;52.742;16.962;2023-08-07T03:39:11;3.80;;;2.40;;
73678;SDS011;61978;52.742;16.962;2023-08-07T03:41:38;4.70;;;2.00;;
73678;SDS011;61978;52.742;16.962;2023-08-07T03:44:06;3.30;;;2.20;;
73678;SDS011;61978;52.742;16.962;2023-08-07T03:46:33;2.10;;;1.60;;
73678;SDS011;61978;52.742;16.962;2023-08-07T03:48:59;3.40;;;1.30;;
73678;SDS011;61978;52.742;16.962;2023-08-07T03:51:25;2.10;;;1.60;;
73678;SDS011;61978;52.742;16.962;2023-08-07T03:53:52;2.90;;;1.30;;
73678;SDS011;61978;52.742;16.962;2023-08-07T03:56:19;2.30;;;1.50;;
73678;SDS011;61978;52.742;16.962;2023-08-07T03:58:45;2.60;;;1.40;;
73678;SDS011;61978;52.742;16.962;2023-08-07T04:01:12;2.40;;;1.50;;
73678;SDS011;61978;52.742;16.962;2023-08-07T04:03:38;4.30;;;1.80;;
73678;SDS011;61978;52.742;16.962;2023-08-07T04:06:04;2.40;;;1.60;;
73678;SDS011;61978;52.742;16.962;2023-08-07T04:08:31;3.30;;;1.80;;
73678;SDS011;61978;52.742;16.962;2023-08-07T04:11:00;4.10;;;1.50;;
73678;SDS011;61978;52.742;16.962;2023-08-07T04:13:27;2.60;;;1.60;;
73678;SDS011;61978;52.742;16.962;2023-08-07T04:15:52;1.90;;;1.40;;
73678;SDS011;61978;52.742;16.962;2023-08-07T04:18:18;3.80;;;1.50;;
73678;SDS011;61978;52.742;16.962;2023-08-07T04:20:49;4.30;;;1.50;;
73678;SDS011;61978;52.742;16.962;2023-08-07T04:23:15;3.30;;;1.40;;
73678;SDS011;61978;52.742;16.962;2023-08-07T04:25:41;5.90;;;1.40;;
73678;SDS011;61978;52.742;16.962;2023-08-07T04:28:07;2.80;;;1.40;;
73678;SDS011;61978;52.742;16.962;2023-08-07T04:30:33;4.40;;;1.40;;
73678;SDS011;61978;52.742;16.962;2023-08-07T04:32:59;3.40;;;1.50;;
73678;SDS011;61978;52.742;16.962;2023-08-07T04:35:29;3.50;;;1.30;;
73678;SDS011;61978;52.742;16.962;2023-08-07T04:37:55;2.20;;;1.70;;
73678;SDS011;61978;52.742;16.962;2023-08-07T04:40:21;3.40;;;1.40;;
73678;SDS011;61978;52.742;16.962;2023-08-07T04:42:48;3.70;;;1.40;;
73678;SDS011;61978;52.742;16.962;2023-08-07T04:45:14;4.80;;;1.50;;
73678;SDS011;61978;52.742;16.962;2023-08-07T04:47:40;2.10;;;1.50;;
73678;SDS011;61978;52.742;16.962;2023-08-07T04:50:06;2.50;;;1.80;;
73678;SDS011;61978;52.742;16.962;2023-08-07T04:52:33;1.50;;;1.40;;
73678;SDS011;61978;52.742;16.962;2023-08-07T04:54:59;3.00;;;1.50;;
73678;SDS011;61978;52.742;16.962;2023-08-07T04:57:25;4.20;;;1.40;;
73678;SDS011;61978;52.742;16.962;2023-08-07T04:59:51;2.40;;;1.20;;
73678;SDS011;61978;52.742;16.962;2023-08-07T05:02:18;2.70;;;1.20;;
73678;SDS011;61978;52.742;16.962;2023-08-07T05:04:45;3.00;;;1.20;;
73678;SDS011;61978;52.742;16.962;2023-08-07T05:07:11;1.90;;;1.40;;
73678;SDS011;61978;52.742;16.962;2023-08-07T05:09:36;1.80;;;1.70;;
73678;SDS011;61978;52.742;16.962;2023-08-07T05:12:04;1.50;;;0.90;;
73678;SDS011;61978;52.742;16.962;2023-08-07T05:14:30;2.50;;;1.70;;
73678;SDS011;61978;52.742;16.962;2023-08-07T05:16:55;3.70;;;1.70;;
73678;SDS011;61978;52.742;16.962;2023-08-07T05:19:23;1.60;;;1.40;;
73678;SDS011;61978;52.742;16.962;2023-08-07T05:21:48;2.10;;;1.60;;
73678;SDS011;61978;52.742;16.962;2023-08-07T05:24:16;2.70;;;1.50;;
73678;SDS011;61978;52.742;16.962;2023-08-07T05:26:42;4.80;;;1.00;;
73678;SDS011;61978;52.742;16.962;2023-08-07T05:29:10;3.70;;;1.40;;
73678;SDS011;61978;52.742;16.962;2023-08-07T05:31:37;1.00;;;1.00;;
73678;SDS011;61978;52.742;16.962;2023-08-07T05:34:04;3.70;;;1.40;;
73678;SDS011;61978;52.742;16.962;2023-08-07T05:36:30;3.70;;;1.20;;
73678;SDS011;61978;52.742;16.962;2023-08-07T05:38:58;3.90;;;1.50;;
73678;SDS011;61978;52.742;16.962;2023-08-07T05:41:23;2.20;;;1.30;;
73678;SDS011;61978;52.742;16.962;2023-08-07T05:43:49;3.20;;;1.70;;
73678;SDS011;61978;52.742;16.962;2023-08-07T05:46:17;2.50;;;1.20;;
73678;SDS011;61978;52.742;16.962;2023-08-07T05:48:42;4.50;;;1.50;;
73678;SDS011;61978;52.742;16.962;2023-08-07T05:51:08;3.00;;;1.30;;
73678;SDS011;61978;52.742;16.962;2023-08-07T05:53:36;4.40;;;1.30;;
73678;SDS011;61978;52.742;16.962;2023-08-07T05:56:02;2.20;;;1.20;;
73678;SDS011;61978;52.742;16.962;2023-08-07T05:58:28;4.60;;;1.00;;
73678;SDS011;61978;52.742;16.962;2023-08-07T06:00:54;2.50;;;1.20;;
73678;SDS011;61978;52.742;16.962;2023-08-07T06:03:20;2.40;;;1.30;;
73678;SDS011;61978;52.742;16.962;2023-08-07T06:05:46;3.20;;;1.00;;
73678;SDS011;61978;52.742;16.962;2023-08-07T06:08:12;1.10;;;1.00;;
73678;SDS011;61978;52.742;16.962;2023-08-07T06:10:38;1.60;;;1.30;;
73678;SDS011;61978;52.742;16.962;2023-08-07T06:13:05;2.10;;;1.00;;
73678;SDS011;61978;52.742;16.962;2023-08-07T06:15:32;3.80;;;1.30;;
73678;SDS011;61978;52.742;16.962;2023-08-07T06:17:57;1.10;;;1.00;;
73678;SDS011;61978;52.742;16.962;2023-08-07T06:20:23;1.30;;;0.80;;
73678;SDS011;61978;52.742;16.962;2023-08-07T06:22:49;3.20;;;0.90;;
73678;SDS011;61978;52.742;16.962;2023-08-07T06:25:14;1.40;;;1.10;;
73678;SDS011;61978;52.742;16.962;2023-08-07T06:27:43;1.80;;;1.00;;
73678;SDS011;61978;52.742;16.962;2023-08-07T06:30:11;5.10;;;0.90;;
73678;SDS011;61978;52.742;16.962;2023-08-07T06:32:37;2.80;;;1.10;;
73678;SDS011;61978;52.742;16.962;2023-08-07T06:35:03;2.50;;;1.10;;
73678;SDS011;61978;52.742;16.962;2023-08-07T06:37:30;2.90;;;1.10;;
73678;SDS011;61978;52.742;16.962;2023-08-07T06:39:55;1.90;;;1.20;;
73678;SDS011;61978;52.742;16.962;2023-08-07T06:42:21;2.00;;;0.80;;
73678;SDS011;61978;52.742;16.962;2023-08-07T06:44:47;2.20;;;1.10;;
73678;SDS011;61978;52.742;16.962;2023-08-07T06:47:12;1.20;;;0.80;;
73678;SDS011;61978;52.742;16.962;2023-08-07T06:49:39;2.40;;;1.00;;
73678;SDS011;61978;52.742;16.962;2023-08-07T06:52:06;1.70;;;1.30;;
73678;SDS011;61978;52.742;16.962;2023-08-07T06:54:32;1.70;;;1.00;;
73678;SDS011;61978;52.742;16.962;2023-08-07T06:56:58;2.50;;;1.20;;
73678;SDS011;61978;52.742;16.962;2023-08-07T06:59:24;3.00;;;0.90;;
73678;SDS011;61978;52.742;16.962;2023-08-07T07:01:51;2.10;;;1.20;;
73678;SDS011;61978;52.742;16.962;2023-08-07T07:04:21;1.30;;;0.90;;
73678;SDS011;61978;52.742;16.962;2023-08-07T07:06:46;1.70;;;1.30;;
73678;SDS011;61978;52.742;16.962;2023-08-07T07:09:12;1.20;;;1.10;;
73678;SDS011;61978;52.742;16.962;2023-08-07T07:11:42;2.80;;;1.50;;
73678;SDS011;61978;52.742;16.962;2023-08-07T07:14:07;6.40;;;1.30;;
73678;SDS011;61978;52.742;16.962;2023-08-07T07:16:33;3.00;;;0.90;;
73678;SDS011;61978;52.742;16.962;2023-08-07T07:18:59;4.50;;;1.10;;
73678;SDS011;61978;52.742;16.962;2023-08-07T07:21:25;3.50;;;1.40;;
73678;SDS011;61978;52.742;16.962;2023-08-07T07:23:51;2.40;;;1.20;;
73678;SDS011;61978;52.742;16.962;2023-08-07T07:26:17;4.30;;;1.30;;
73678;SDS011;61978;52.742;16.962;2023-08-07T07:28:43;1.90;;;1.20;;
73678;SDS011;61978;52.742;16.962;2023-08-07T07:31:08;1.40;;;0.80;;
73678;SDS011;61978;52.742;16.962;2023-08-07T07:33:37;3.30;;;1.40;;
73678;SDS011;61978;52.742;16.962;2023-08-07T07:36:05;1.70;;;1.40;;
73678;SDS011;61978;52.742;16.962;2023-08-07T07:38:32;2.80;;;1.40;;
73678;SDS011;61978;52.742;16.962;2023-08-07T07:40:58;1.70;;;1.30;;
73678;SDS011;61978;52.742;16.962;2023-08-07T07:43:24;2.50;;;1.40;;
73678;SDS011;61978;52.742;16.962;2023-08-07T07:45:50;1.90;;;1.10;;
73678;SDS011;61978;52.742;16.962;2023-08-07T07:48:16;2.70;;;1.80;;
73678;SDS011;61978;52.742;16.962;2023-08-07T07:50:44;2.50;;;1.30;;
73678;SDS011;61978;52.742;16.962;2023-08-07T07:53:10;3.40;;;1.40;;
73678;SDS011;61978;52.742;16.962;2023-08-07T07:55:35;4.60;;;1.50;;
73678;SDS011;61978;52.742;16.962;2023-08-07T07:58:03;3.50;;;1.20;;
73678;SDS011;61978;52.742;16.962;2023-08-07T08:00:29;2.00;;;1.40;;
73678;SDS011;61978;52.742;16.962;2023-08-07T08:02:55;7.10;;;1.70;;
73678;SDS011;61978;52.742;16.962;2023-08-07T08:05:20;3.70;;;1.40;;
73678;SDS011;61978;52.742;16.962;2023-08-07T08:07:47;3.20;;;1.60;;
73678;SDS011;61978;52.742;16.962;2023-08-07T08:10:13;3.80;;;1.30;;
73678;SDS011;61978;52.742;16.962;2023-08-07T08:12:39;3.20;;;1.70;;
73678;SDS011;61978;52.742;16.962;2023-08-07T08:15:04;1.70;;;1.50;;
73678;SDS011;61978;52.742;16.962;2023-08-07T08:17:31;5.20;;;1.70;;
73678;SDS011;61978;52.742;16.962;2023-08-07T08:19:56;3.10;;;2.30;;
73678;SDS011;61978;52.742;16.962;2023-08-07T08:22:22;3.90;;;1.60;;
73678;SDS011;61978;52.742;16.962;2023-08-07T08:24:51;4.60;;;2.00;;
73678;SDS011;61978;52.742;16.962;2023-08-07T08:27:17;5.60;;;1.30;;
73678;SDS011;61978;52.742;16.962;2023-08-07T08:29:43;4.70;;;1.50;;
73678;SDS011;61978;52.742;16.962;2023-08-07T08:32:10;3.70;;;1.60;;
73678;SDS011;61978;52.742;16.962;2023-08-07T08:34:37;5.30;;;1.50;;
73678;SDS011;61978;52.742;16.962;2023-08-07T08:37:03;2.60;;;1.30;;
73678;SDS011;61978;52.742;16.962;2023-08-07T08:39:31;2.40;;;1.70;;
73678;SDS011;61978;52.742;16.962;2023-08-07T08:41:57;4.10;;;1.70;;
73678;SDS011;61978;52.742;16.962;2023-08-07T08:44:23;3.70;;;1.50;;
73678;SDS011;61978;52.742;16.962;2023-08-07T08:46:51;5.70;;;1.80;;
73678;SDS011;61978;52.742;16.962;2023-08-07T08:49:20;6.20;;;1.30;;
73678;SDS011;61978;52.742;16.962;2023-08-07T08:51:48;5.50;;;1.80;;
73678;SDS011;61978;52.742;16.962;2023-08-07T08:54:15;3.80;;;1.60;;
73678;SDS011;61978;52.742;16.962;2023-08-07T08:56:41;5.40;;;2.00;;
73678;SDS011;61978;52.742;16.962;2023-08-07T08:59:08;4.00;;;1.30;;
73678;SDS011;61978;52.742;16.962;2023-08-07T09:01:34;5.90;;;1.20;;
73678;SDS011;61978;52.742;16.962;2023-08-07T09:04:01;5.10;;;1.70;;
73678;SDS011;61978;52.742;16.962;2023-08-07T09:06:31;4.90;;;1.60;;
73678;SDS011;61978;52.742;16.962;2023-08-07T09:08:58;2.50;;;1.60;;
73678;SDS011;61978;52.742;16.962;2023-08-07T09:11:26;3.90;;;1.60;;
73678;SDS011;61978;52.742;16.962;2023-08-07T09:13:52;3.90;;;1.60;;
73678;SDS011;61978;52.742;16.962;2023-08-07T09:16:25;7.80;;;1.70;;
73678;SDS011;61978;52.742;16.962;2023-08-07T09:18:52;3.00;;;1.60;;
73678;SDS011;61978;52.742;16.962;2023-08-07T09:21:20;3.90;;;2.10;;
73678;SDS011;61978;52.742;16.962;2023-08-07T09:23:48;5.50;;;1.80;;
73678;SDS011;61978;52.742;16.962;2023-08-07T09:26:23;2.40;;;1.50;;
73678;SDS011;61978;52.742;16.962;2023-08-07T09:28:50;4.40;;;1.40;;
73678;SDS011;61978;52.742;16.962;2023-08-07T09:31:17;5.30;;;1.90;;
73678;SDS011;61978;52.742;16.962;2023-08-07T09:33:48;2.90;;;1.50;;
73678;SDS011;61978;52.742;16.962;2023-08-07T09:36:14;2.70;;;1.30;;
73678;SDS011;61978;52.742;16.962;2023-08-07T09:38:49;3.10;;;1.50;;
73678;SDS011;61978;52.742;16.962;2023-08-07T09:41:19;3.80;;;1.30;;
73678;SDS011;61978;52.742;16.962;2023-08-07T09:43:46;4.50;;;1.80;;
73678;SDS011;61978;52.742;16.962;2023-08-07T09:46:13;6.20;;;1.40;;
73678;SDS011;61978;52.742;16.962;2023-08-07T09:48:40;1.40;;;1.30;;
73678;SDS011;61978;52.742;16.962;2023-08-07T09:51:06;4.90;;;1.30;;
73678;SDS011;61978;52.742;16.962;2023-08-07T09:53:32;6.70;;;1.90;;
73678;SDS011;61978;52.742;16.962;2023-08-07T09:56:06;8.90;;;1.30;;
73678;SDS011;61978;52.742;16.962;2023-08-07T09:58:33;2.70;;;1.20;;
73678;SDS011;61978;52.742;16.962;2023-08-07T10:01:00;3.00;;;1.70;;
73678;SDS011;61978;52.742;16.962;2023-08-07T10:03:29;2.60;;;1.70;;
73678;SDS011;61978;52.742;16.962;2023-08-07T10:06:04;2.40;;;1.20;;
73678;SDS011;61978;52.742;16.962;2023-08-07T10:08:33;3.00;;;1.80;;
73678;SDS011;61978;52.742;16.962;2023-08-07T10:11:01;1.70;;;0.90;;
73678;SDS011;61978;52.742;16.962;2023-08-07T10:13:32;3.90;;;0.90;;
73678;SDS011;61978;52.742;16.962;2023-08-07T10:15:59;10.40;;;1.40;;
73678;SDS011;61978;52.742;16.962;2023-08-07T10:18:27;2.70;;;1.10;;
73678;SDS011;61978;52.742;16.962;2023-08-07T10:20:54;2.00;;;1.00;;
73678;SDS011;61978;52.742;16.962;2023-08-07T10:23:21;1.60;;;0.70;;
73678;SDS011;61978;52.742;16.962;2023-08-07T10:25:47;0.80;;;0.70;;
73678;SDS011;61978;52.742;16.962;2023-08-07T10:28:16;1.60;;;1.10;;
73678;SDS011;61978;52.742;16.962;2023-08-07T10:30:43;3.20;;;1.10;;
73678;SDS011;61978;52.742;16.962;2023-08-07T10:33:10;2.20;;;1.10;;
73678;SDS011;61978;52.742;16.962;2023-08-07T10:35:46;2.30;;;0.90;;
73678;SDS011;61978;52.742;16.962;2023-08-07T10:38:24;1.80;;;0.90;;
73678;SDS011;61978;52.742;16.962;2023-08-07T10:43:53;2.60;;;0.90;;
73678;SDS011;61978;52.742;16.962;2023-08-07T10:46:22;2.10;;;1.30;;
73678;SDS011;61978;52.742;16.962;2023-08-07T10:48:54;1.40;;;1.20;;
73678;SDS011;61978;52.742;16.962;2023-08-07T10:51:29;1.20;;;0.80;;
73678;SDS011;61978;52.742;16.962;2023-08-07T10:54:00;2.40;;;0.90;;
73678;SDS011;61978;52.742;16.962;2023-08-07T10:56:36;2.30;;;0.80;;
73678;SDS011;61978;52.742;16.962;2023-08-07T10:59:15;1.20;;;0.70;;
73678;SDS011;61978;52.742;16.962;2023-08-07T11:01:43;4.30;;;1.00;;
73678;SDS011;61978;52.742;16.962;2023-08-07T11:04:18;6.10;;;1.10;;
73678;SDS011;61978;52.742;16.962;2023-08-07T11:06:51;1.50;;;0.60;;
73678;SDS011;61978;52.742;16.962;2023-08-07T11:09:18;4.10;;;1.20;;
73678;SDS011;61978;52.742;16.962;2023-08-07T11:11:46;3.60;;;1.10;;
73678;SDS011;61978;52.742;16.962;2023-08-07T11:14:14;1.70;;;1.20;;
73678;SDS011;61978;52.742;16.962;2023-08-07T11:16:41;3.20;;;0.80;;
73678;SDS011;61978;52.742;16.962;2023-08-07T11:19:08;4.10;;;1.10;;
73678;SDS011;61978;52.742;16.962;2023-08-07T11:21:34;2.70;;;1.00;;
73678;SDS011;61978;52.742;16.962;2023-08-07T11:24:02;2.40;;;1.00;;
73678;SDS011;61978;52.742;16.962;2023-08-07T11:26:29;2.20;;;1.10;;
73678;SDS011;61978;52.742;16.962;2023-08-07T11:28:56;2.20;;;1.10;;
73678;SDS011;61978;52.742;16.962;2023-08-07T11:31:23;1.70;;;1.10;;
73678;SDS011;61978;52.742;16.962;2023-08-07T11:33:50;3.00;;;1.40;;
73678;SDS011;61978;52.742;16.962;2023-08-07T11:36:21;1.80;;;1.00;;
73678;SDS011;61978;52.742;16.962;2023-08-07T11:38:48;3.40;;;1.30;;
73678;SDS011;61978;52.742;16.962;2023-08-07T11:41:16;2.70;;;1.00;;
73678;SDS011;61978;52.742;16.962;2023-08-07T11:43:43;1.60;;;1.10;;
73678;SDS011;61978;52.742;16.962;2023-08-07T11:46:12;3.90;;;1.20;;
73678;SDS011;61978;52.742;16.962;2023-08-07T11:48:39;3.30;;;1.70;;
73678;SDS011;61978;52.742;16.962;2023-08-07T11:51:07;4.70;;;1.10;;
73678;SDS011;61978;52.742;16.962;2023-08-07T11:53:37;0.80;;;0.80;;
73678;SDS011;61978;52.742;16.962;2023-08-07T11:56:21;2.20;;;1.40;;
73678;SDS011;61978;52.742;16.962;2023-08-07T11:59:09;1.60;;;1.00;;
73678;SDS011;61978;52.742;16.962;2023-08-07T12:01:38;2.90;;;1.40;;
73678;SDS011;61978;52.742;16.962;2023-08-07T12:06:53;1.90;;;1.20;;
73678;SDS011;61978;52.742;16.962;2023-08-07T12:09:22;2.70;;;1.00;;
73678;SDS011;61978;52.742;16.962;2023-08-07T12:11:59;3.20;;;1.20;;
73678;SDS011;61978;52.742;16.962;2023-08-07T12:14:30;2.80;;;1.50;;
73678;SDS011;61978;52.742;16.962;2023-08-07T12:17:02;2.00;;;1.30;;
73678;SDS011;61978;52.742;16.962;2023-08-07T12:19:46;5.10;;;1.10;;
73678;SDS011;61978;52.742;16.962;2023-08-07T12:22:21;3.30;;;1.40;;
73678;SDS011;61978;52.742;16.962;2023-08-07T12:24:50;4.10;;;1.60;;
73678;SDS011;61978;52.742;16.962;2023-08-07T12:27:23;4.60;;;1.30;;
73678;SDS011;61978;52.742;16.962;2023-08-07T12:29:52;1.60;;;1.10;;
73678;SDS011;61978;52.742;16.962;2023-08-07T12:32:19;5.20;;;1.30;;
73678;SDS011;61978;52.742;16.962;2023-08-07T12:34:47;3.10;;;1.30;;
73678;SDS011;61978;52.742;16.962;2023-08-07T12:37:16;3.20;;;1.10;;
73678;SDS011;61978;52.742;16.962;2023-08-07T12:39:43;4.40;;;1.00;;
73678;SDS011;61978;52.742;16.962;2023-08-07T12:42:10;1.30;;;0.80;;
73678;SDS011;61978;52.742;16.962;2023-08-07T12:44:37;4.40;;;1.30;;
73678;SDS011;61978;52.742;16.962;2023-08-07T12:47:08;3.30;;;1.20;;
73678;SDS011;61978;52.742;16.962;2023-08-07T12:49:41;1.40;;;0.80;;
73678;SDS011;61978;52.742;16.962;2023-08-07T12:52:14;3.30;;;1.20;;
73678;SDS011;61978;52.742;16.962;2023-08-07T12:54:42;2.70;;;1.10;;
73678;SDS011;61978;52.742;16.962;2023-08-07T12:57:13;4.90;;;1.60;;
73678;SDS011;61978;52.742;16.962;2023-08-07T12:59:54;2.10;;;1.30;;
73678;SDS011;61978;52.742;16.962;2023-08-07T13:02:24;3.50;;;1.40;;
73678;SDS011;61978;52.742;16.962;2023-08-07T13:05:25;3.50;;;1.80;;
73678;SDS011;61978;52.742;16.962;2023-08-07T13:08:14;2.60;;;1.60;;
73678;SDS011;61978;52.742;16.962;2023-08-07T13:10:54;2.10;;;1.60;;
73678;SDS011;61978;52.742;16.962;2023-08-07T13:13:24;2.60;;;1.60;;
73678;SDS011;61978;52.742;16.962;2023-08-07T13:15:51;5.00;;;1.80;;
73678;SDS011;61978;52.742;16.962;2023-08-07T13:18:18;4.60;;;1.80;;
73678;SDS011;61978;52.742;16.962;2023-08-07T13:20:47;4.70;;;1.90;;
73678;SDS011;61978;52.742;16.962;2023-08-07T13:23:21;4.70;;;2.10;;
73678;SDS011;61978;52.742;16.962;2023-08-07T13:25:53;6.30;;;2.40;;
73678;SDS011;61978;52.742;16.962;2023-08-07T13:28:23;7.60;;;3.10;;
73678;SDS011;61978;52.742;16.962;2023-08-07T13:31:01;4.00;;;1.70;;
73678;SDS011;61978;52.742;16.962;2023-08-07T13:33:29;5.30;;;2.00;;
73678;SDS011;61978;52.742;16.962;2023-08-07T13:35:55;6.20;;;2.50;;
73678;SDS011;61978;52.742;16.962;2023-08-07T13:38:21;4.30;;;1.70;;
73678;SDS011;61978;52.742;16.962;2023-08-07T13:40:47;4.90;;;1.70;;
73678;SDS011;61978;52.742;16.962;2023-08-07T13:43:17;6.80;;;1.90;;
73678;SDS011;61978;52.742;16.962;2023-08-07T13:45:44;2.80;;;1.80;;
73678;SDS011;61978;52.742;16.962;2023-08-07T13:48:11;3.50;;;1.90;;
73678;SDS011;61978;52.742;16.962;2023-08-07T13:50:36;2.20;;;1.70;;
73678;SDS011;61978;52.742;16.962;2023-08-07T13:53:06;4.60;;;1.70;;
73678;SDS011;61978;52.742;16.962;2023-08-07T13:55:32;4.30;;;1.70;;
73678;SDS011;61978;52.742;16.962;2023-08-07T13:57:59;5.20;;;2.10;;
73678;SDS011;61978;52.742;16.962;2023-08-07T14:00:25;6.40;;;2.30;;
73678;SDS011;61978;52.742;16.962;2023-08-07T14:02:52;4.50;;;2.30;;
73678;SDS011;61978;52.742;16.962;2023-08-07T14:05:18;3.60;;;1.60;;
73678;SDS011;61978;52.742;16.962;2023-08-07T14:07:44;2.30;;;1.60;;
73678;SDS011;61978;52.742;16.962;2023-08-07T14:10:10;3.30;;;2.00;;
73678;SDS011;61978;52.742;16.962;2023-08-07T14:12:37;3.60;;;2.00;;
73678;SDS011;61978;52.742;16.962;2023-08-07T14:15:03;3.00;;;1.80;;
73678;SDS011;61978;52.742;16.962;2023-08-07T14:17:30;9.30;;;1.80;;
73678;SDS011;61978;52.742;16.962;2023-08-07T14:19:56;6.90;;;1.90;;
73678;SDS011;61978;52.742;16.962;2023-08-07T14:22:22;4.90;;;2.10;;
73678;SDS011;61978;52.742;16.962;2023-08-07T14:24:48;4.20;;;2.00;;
73678;SDS011;61978;52.742;16.962;2023-08-07T14:27:15;3.30;;;1.90;;
73678;SDS011;61978;52.742;16.962;2023-08-07T14:29:45;3.60;;;1.70;;
73678;SDS011;61978;52.742;16.962;2023-08-07T14:32:12;5.60;;;1.70;;
73678;SDS011;61978;52.742;16.962;2023-08-07T14:34:38;7.80;;;1.90;;
73678;SDS011;61978;52.742;16.962;2023-08-07T14:37:05;5.80;;;2.00;;
73678;SDS011;61978;52.742;16.962;2023-08-07T14:39:32;3.70;;;1.80;;
73678;SDS011;61978;52.742;16.962;2023-08-07T14:41:59;3.10;;;1.90;;
73678;SDS011;61978;52.742;16.962;2023-08-07T14:44:26;3.20;;;2.00;;